Terminal Aerodrome Forecast
Issued by NWS

Home | Current Version | Previous Version | Graphics & Text | Print | Product List | Glossary On
Versions: 1 2 3 4 5 6 7 8 9 10 11 12 13 14 15 16 17 18 19 20 21 22 23 24 25 26 27 28
000
FTUS43 KICT 161720
TAFCNU
TAF
KCNU 161720Z 1618/1718 13011KT P6SM VCTS BKN035CB
     FM162000 17015G22KT P6SM BKN110
      TEMPO 1623/1703 3SM TSRA BKN025CB
     FM170300 23011KT P6SM VCTS BKN035CB
     FM170600 25010KT P6SM BKN040=

USA.gov is the U.S. government's official web portal to all federal, state and local government web resources and services.